Time,TemperatureF,DewpointF,PressureIn,WindDirection,WindDirectionDegrees,WindSpeedMPH,WindSpeedGustMPH,Humidity,HourlyPrecipIn,Conditions,Clouds,dailyrainin,SoftwareType,DateUTC
2013-10-21 00:00:00,55.8,45.4,29.85,SW,233,5.0,13.0,68,0.00,,---,0.00,VWS V14.01,2013-10-21 04:00:00,
2013-10-21 00:30:00,55.9,45.1,29.85,WSW,249,5.0,14.0,67,0.00,,---,0.00,VWS V14.01,2013-10-21 04:30:00,
2013-10-21 01:00:00,55.7,45.3,29.84,SW,219,7.0,11.0,68,0.00,,---,0.00,VWS V14.01,2013-10-21 05:00:00,
2013-10-21 01:30:00,55.7,44.9,29.84,WSW,250,5.0,11.0,67,0.00,,---,0.00,VWS V14.01,2013-10-21 05:30:00,
2013-10-21 02:00:00,55.7,44.9,29.84,WSW,248,7.0,10.0,67,0.00,,---,0.00,VWS V14.01,2013-10-21 06:00:00,
2013-10-21 02:30:00,55.7,45.3,29.85,SSW,204,4.0,15.0,68,0.00,,---,0.00,VWS V14.01,2013-10-21 06:30:00,
2013-10-21 03:00:00,55.3,45.3,29.85,SSW,205,3.0,9.0,69,0.00,,---,0.00,VWS V14.01,2013-10-21 07:00:00,
2013-10-21 03:30:00,55.1,45.9,29.85,SW,231,5.0,8.0,71,0.00,,---,0.00,VWS V14.01,2013-10-21 07:30:00,
2013-10-21 04:00:00,54.5,45.3,29.85,SW,222,2.0,8.0,71,0.00,,---,0.00,VWS V14.01,2013-10-21 08:00:00,
2013-10-21 04:30:00,53.8,45.4,29.85,WSW,243,6.0,7.0,73,0.00,,---,0.00,VWS V14.01,2013-10-21 08:30:00,
2013-10-21 05:00:00,52.9,44.8,29.85,WSW,242,1.0,7.0,74,0.00,,---,0.00,VWS V14.01,2013-10-21 09:00:00,
2013-10-21 05:30:00,52.2,44.5,29.85,SW,236,4.0,7.0,75,0.00,,---,0.00,VWS V14.01,2013-10-21 09:30:00,
2013-10-21 06:00:00,51.6,44.6,29.85,SW,218,2.0,7.0,77,0.00,,---,0.00,VWS V14.01,2013-10-21 10:00:00,
2013-10-21 06:30:00,51.2,44.6,29.85,WSW,240,2.0,7.0,78,0.00,,---,0.00,VWS V14.01,2013-10-21 10:30:00,
2013-10-21 07:00:00,50.6,44.3,29.86,SW,236,0.0,7.0,79,0.00,,---,0.00,VWS V14.01,2013-10-21 11:00:00,
2013-10-21 07:30:00,50.1,44.2,29.86,West,278,5.0,5.0,80,0.00,,---,0.00,VWS V14.01,2013-10-21 11:30:00,
2013-10-21 08:00:00,49.7,44.1,29.87,SSW,213,0.0,5.0,81,0.00,,---,0.00,VWS V14.01,2013-10-21 12:00:00,
2013-10-21 08:30:00,49.5,44.2,29.87,WNW,283,1.0,5.0,82,0.00,,---,0.00,VWS V14.01,2013-10-21 12:30:00,
2013-10-21 09:00:00,50.4,45.1,29.88,WSW,243,2.0,7.0,82,0.00,,---,0.00,VWS V14.01,2013-10-21 13:00:00,
2013-10-21 09:30:00,50.7,45.4,29.88,West,278,1.0,7.0,82,0.00,,---,0.00,VWS V14.01,2013-10-21 13:30:00,
2013-10-21 10:00:00,50.5,45.5,29.88,West,270,2.0,8.0,83,0.00,,---,0.00,VWS V14.01,2013-10-21 14:00:00,
2013-10-21 10:30:00,50.9,46.2,29.88,WNW,302,2.0,8.0,84,0.00,,---,0.00,VWS V14.01,2013-10-21 14:30:00,
2013-10-21 11:00:00,50.9,46.2,29.89,WNW,285,4.0,8.0,84,0.00,,---,0.00,VWS V14.01,2013-10-21 15:00:00,
2013-10-21 11:30:00,50.9,46.9,29.89,SW,219,6.0,10.0,86,0.00,,---,0.00,VWS V14.01,2013-10-21 15:30:00,
2013-10-21 12:00:00,51.1,47.1,29.88,SW,217,1.0,9.0,86,0.00,,---,0.00,VWS V14.01,2013-10-21 16:00:00,
2013-10-21 12:30:00,51.0,47.3,29.89,West,277,3.0,10.0,87,0.00,,---,0.00,VWS V14.01,2013-10-21 16:30:00,
2013-10-21 13:00:00,51.3,47.3,29.88,WSW,240,2.0,8.0,86,0.00,,---,0.00,VWS V14.01,2013-10-21 17:00:00,
2013-10-21 13:30:00,51.9,47.5,29.87,West,278,3.0,8.0,85,0.00,,---,0.00,VWS V14.01,2013-10-21 17:30:00,
2013-10-21 14:00:00,52.6,47.6,29.86,SW,219,4.0,10.0,83,0.00,,---,0.00,VWS V14.01,2013-10-21 18:00:00,
2013-10-21 14:30:00,52.6,47.3,29.85,WSW,243,5.0,15.0,82,0.00,,---,0.00,VWS V14.01,2013-10-21 18:30:00,
2013-10-21 15:00:00,52.4,46.8,29.85,West,269,8.0,13.0,81,0.00,,---,0.00,VWS V14.01,2013-10-21 19:00:00,
2013-10-21 15:30:00,51.7,45.7,29.86,NW,304,6.0,15.0,80,0.00,,---,0.00,VWS V14.01,2013-10-21 19:30:00,
2013-10-21 16:00:00,51.1,45.2,29.86,West,274,8.0,16.0,80,0.00,,---,0.00,VWS V14.01,2013-10-21 20:00:00,
2013-10-21 16:30:00,50.9,44.0,29.86,West,264,9.0,14.0,77,0.00,,---,0.00,VWS V14.01,2013-10-21 20:30:00,
2013-10-21 17:00:00,51.0,43.7,29.86,SSW,210,5.0,13.0,76,0.00,,---,0.00,VWS V14.01,2013-10-21 21:00:00,
2013-10-21 17:30:00,50.5,42.5,29.87,WNW,287,7.0,13.0,74,0.00,,---,0.00,VWS V14.01,2013-10-21 21:30:00,
2013-10-21 18:00:00,48.7,40.8,29.89,WNW,288,10.0,16.0,74,0.00,,---,0.00,VWS V14.01,2013-10-21 22:00:00,
2013-10-21 18:30:00,47.8,38.9,29.90,NNW,343,9.0,13.0,71,0.00,,---,0.00,VWS V14.01,2013-10-21 22:30:00,
2013-10-21 19:00:00,46.8,37.9,29.90,WNW,288,7.0,12.0,71,0.00,,---,0.00,VWS V14.01,2013-10-21 23:00:00,
2013-10-21 19:30:00,45.8,37.7,29.91,West,269,4.0,8.0,73,0.00,,---,0.00,VWS V14.01,2013-10-21 23:30:00,
2013-10-21 20:00:00,44.8,38.0,29.91,WSW,246,2.0,6.0,77,0.00,,---,0.00,VWS V14.01,2013-10-22 00:00:00,
2013-10-21 20:30:00,44.4,38.0,29.92,WSW,255,3.0,6.0,78,0.00,,---,0.00,VWS V14.01,2013-10-22 00:30:00,
2013-10-21 21:00:00,44.4,37.3,29.92,West,273,4.0,9.0,76,0.00,,---,0.00,VWS V14.01,2013-10-22 01:00:00,
2013-10-21 21:30:00,43.7,35.6,29.92,WNW,295,8.0,12.0,73,0.00,,---,0.00,VWS V14.01,2013-10-22 01:30:00,
2013-10-21 22:00:00,43.0,33.2,29.93,WNW,302,8.0,16.0,68,0.00,,---,0.00,VWS V14.01,2013-10-22 02:00:00,
2013-10-21 22:30:00,41.8,32.0,29.94,West,269,6.0,12.0,68,0.00,,---,0.00,VWS V14.01,2013-10-22 02:30:00,
2013-10-21 23:00:00,40.8,32.1,29.94,West,274,4.0,10.0,71,0.00,,---,0.00,VWS V14.01,2013-10-22 03:00:00,
2013-10-21 23:30:00,40.4,31.8,29.95,WNW,285,7.0,10.0,71,0.00,,---,0.00,VWS V14.01,2013-10-22 03:30:00,